createdAt,value
2022-09-23T00:00:37.752Z,101111.45
2022-09-23T00:06:06.506Z,101109.79
2022-09-23T00:11:11.137Z,101103.69
2022-09-23T00:16:20.258Z,101102.10
2022-09-23T00:21:23.221Z,101104.84
2022-09-23T00:26:26.001Z,101101.70
2022-09-23T00:31:28.906Z,101097.55
2022-09-23T00:36:32.443Z,101093.52
2022-09-23T00:41:36.176Z,101091.85
2022-09-23T00:46:41.386Z,101093.88
2022-09-23T00:51:50.382Z,101096.17
2022-09-23T00:56:54.531Z,101097.98
2022-09-23T01:01:58.045Z,101095.44
2022-09-23T01:07:00.857Z,101098.92
2022-09-23T01:12:23.434Z,101095.20
2022-09-23T01:17:48.125Z,101083.52
2022-09-23T01:23:00.161Z,101084.46
2022-09-23T01:28:21.679Z,101082.54
2022-09-23T01:33:51.779Z,101081.98
2022-09-23T01:39:10.693Z,101084.56
2022-09-23T01:44:16.320Z,101084.30
2022-09-23T01:49:25.620Z,101080.40
2022-09-23T01:55:13.552Z,101082.41
2022-09-23T02:00:18.161Z,101084.61
2022-09-23T02:05:43.850Z,101077.88
2022-09-23T02:11:18.245Z,101080.35
2022-09-23T02:16:41.729Z,101078.75
2022-09-23T02:21:52.559Z,101073.90
2022-09-23T02:26:59.901Z,101078.16
2022-09-23T02:32:32.721Z,101080.08
2022-09-23T02:37:58.226Z,101080.55
2022-09-23T02:43:32.259Z,101075.43
2022-09-23T02:49:04.377Z,101078.80
2022-09-23T02:54:10.621Z,101080.41
2022-09-23T02:59:13.488Z,101077.55
2022-09-23T03:04:50.555Z,101083.67
2022-09-23T03:10:22.614Z,101087.05
2022-09-23T03:15:37.978Z,101082.71
2022-09-23T03:20:59.170Z,101078.15
2022-09-23T03:26:27.851Z,101077.70
2022-09-23T03:31:32.483Z,101077.52
2022-09-23T03:37:18.030Z,101073.30
2022-09-23T03:42:30.175Z,101068.88
2022-09-23T03:47:33.070Z,101066.64
2022-09-23T03:52:35.849Z,101066.80
2022-09-23T03:57:38.672Z,101068.20
2022-09-23T04:02:41.716Z,101066.30
2022-09-23T04:07:44.533Z,101063.94
2022-09-23T04:12:47.276Z,101064.17
2022-09-23T04:17:50.102Z,101062.92
2022-09-23T04:22:52.905Z,101064.05
2022-09-23T04:27:55.754Z,101064.73
2022-09-23T04:32:58.498Z,101071.66
2022-09-23T04:38:01.362Z,101078.02
2022-09-23T04:43:04.220Z,101072.63
2022-09-23T04:48:07.299Z,101074.14
2022-09-23T04:53:10.424Z,101073.20
2022-09-23T04:58:13.178Z,101071.23
2022-09-23T05:03:16.648Z,101070.59
2022-09-23T05:08:19.559Z,101063.12
2022-09-23T05:13:22.455Z,101063.77
2022-09-23T05:18:25.281Z,101067.94
2022-09-23T05:23:28.476Z,101068.77
2022-09-23T05:28:32.773Z,101070.27
2022-09-23T05:33:36.634Z,101072.30
2022-09-23T05:38:40.323Z,101072.98
2022-09-23T05:43:43.397Z,101078.45
2022-09-23T05:48:47.289Z,101082.48
2022-09-23T05:53:54.230Z,101087.13
2022-09-23T05:58:58.845Z,101084.11
2022-09-23T06:04:03.281Z,101087.24
2022-09-23T06:09:06.823Z,101086.50
2022-09-23T06:14:12.587Z,101087.34
2022-09-23T06:19:15.444Z,101084.60
2022-09-23T06:24:22.113Z,101084.76
2022-09-23T06:29:26.749Z,101084.55
2022-09-23T06:34:30.786Z,101085.27
2022-09-23T06:39:35.005Z,101087.15
2022-09-23T06:44:37.813Z,101086.58
2022-09-23T06:49:40.807Z,101083.45
2022-09-23T06:54:43.555Z,101084.70
2022-09-23T06:59:46.402Z,101085.98
2022-09-23T07:04:49.253Z,101090.73
2022-09-23T07:09:52.781Z,101093.07
2022-09-23T07:14:57.329Z,101098.10
2022-09-23T07:20:00.593Z,101095.98
2022-09-23T07:25:03.912Z,101093.89
2022-09-23T07:30:12.319Z,101090.59
2022-09-23T07:35:19.660Z,101084.41
2022-09-23T07:40:23.528Z,101079.23
2022-09-23T07:45:27.562Z,101076.83
2022-09-23T07:50:32.332Z,101072.13
2022-09-23T07:55:35.922Z,101070.06
2022-09-23T08:00:38.684Z,101070.84
2022-09-23T08:05:42.129Z,101071.91
2022-09-23T08:10:45.987Z,101070.73
2022-09-23T08:15:53.248Z,101070.17
2022-09-23T08:20:58.242Z,101070.02
2022-09-23T08:26:03.392Z,101062.30
2022-09-23T08:31:07.476Z,101059.73
2022-09-23T08:36:11.518Z,101057.45
2022-09-23T08:41:58.529Z,101059.14
2022-09-23T08:47:26.157Z,101055.33
2022-09-23T08:52:41.221Z,101054.07
2022-09-23T08:58:26.389Z,101058.03
2022-09-23T09:03:36.186Z,101053.97
2022-09-23T09:08:41.416Z,101049.90
2022-09-23T09:13:53.498Z,101043.31
2022-09-23T09:18:58.987Z,101045.23
2022-09-23T09:24:01.855Z,101039.05
2022-09-23T09:34:47.837Z,101039.50
2022-09-23T09:39:50.749Z,101038.94
2022-09-23T09:45:05.045Z,101029.34
2022-09-23T09:50:39.046Z,101026.23
2022-09-23T09:55:42.017Z,101015.04
2022-09-23T10:00:45.805Z,101014.09
2022-09-23T10:05:52.382Z,101011.64
2022-09-23T10:11:08.220Z,101007.88
2022-09-23T10:16:11.127Z,101008.23
2022-09-23T10:21:16.974Z,100993.92
2022-09-23T10:26:50.912Z,100985.81
2022-09-23T10:32:30.092Z,100991.33
2022-09-23T10:37:37.018Z,100984.84
2022-09-23T10:43:19.915Z,100976.79
2022-09-23T10:48:28.527Z,100978.95
2022-09-23T10:54:10.656Z,100975.33
2022-09-23T10:59:40.169Z,100975.58
2022-09-23T11:04:57.976Z,100975.35
2022-09-23T11:10:47.106Z,100969.73
2022-09-23T11:16:09.322Z,100973.31
2022-09-23T11:21:59.234Z,100966.77
2022-09-23T11:27:17.515Z,100958.23
2022-09-23T11:32:31.146Z,100953.95
2022-09-23T11:37:37.750Z,100954.83
2022-09-23T11:43:07.673Z,100954.25
2022-09-23T11:48:26.069Z,100947.27
2022-09-23T11:53:44.524Z,100943.68
2022-09-23T11:59:36.541Z,100934.56
2022-09-23T12:04:56.961Z,100927.17
2022-09-23T12:10:05.888Z,100919.50
2022-09-23T12:15:54.585Z,100918.09
2022-09-23T12:21:45.712Z,100920.65
2022-09-23T12:26:42.616Z,100910.13
2022-09-23T12:31:46.865Z,100905.47
2022-09-23T12:36:52.794Z,100897.27
2022-09-23T12:42:11.089Z,100898.70
2022-09-23T12:47:28.076Z,100895.00
2022-09-23T12:52:32.292Z,100892.91
2022-09-23T12:57:35.048Z,100890.95
2022-09-23T13:02:43.124Z,100884.16
2022-09-23T13:07:47.814Z,100880.56
2022-09-23T13:12:50.648Z,100880.91
2022-09-23T13:17:53.493Z,100876.90
2022-09-23T13:22:56.314Z,100878.48
2022-09-23T13:28:01.741Z,100878.64
2022-09-23T13:33:14.576Z,100871.36
2022-09-23T13:38:29.762Z,100863.40
2022-09-23T13:43:41.630Z,100854.40
2022-09-23T13:48:46.376Z,100856.84
2022-09-23T13:53:57.621Z,100853.11
2022-09-23T13:59:47.104Z,100854.14
2022-09-23T14:04:51.021Z,100848.45
2022-09-23T14:09:55.460Z,100840.34
2022-09-23T14:14:58.196Z,100835.76
2022-09-23T14:20:01.224Z,100832.21
2022-09-23T14:25:04.250Z,100834.48
2022-09-23T14:30:19.000Z,100834.64
2022-09-23T14:35:27.070Z,100834.52
2022-09-23T14:40:51.095Z,100833.23
2022-09-23T14:46:00.098Z,100828.91
2022-09-23T14:51:06.239Z,100821.23
2022-09-23T14:56:20.349Z,100821.40
2022-09-23T15:01:32.696Z,100820.39
2022-09-23T15:06:42.601Z,100819.25
2022-09-23T15:11:45.450Z,100819.16
2022-09-23T15:16:48.815Z,100816.23
2022-09-23T15:21:52.909Z,100809.34
2022-09-23T15:26:57.945Z,100809.52
2022-09-23T15:32:01.132Z,100812.15
2022-09-23T15:37:03.956Z,100805.48
2022-09-23T15:42:10.332Z,100804.58
2022-09-23T15:47:17.233Z,100805.25
2022-09-23T15:52:22.909Z,100803.39
2022-09-23T15:57:26.137Z,100803.45
2022-09-23T16:02:28.981Z,100809.77
2022-09-23T16:07:31.907Z,100813.95
2022-09-23T16:12:34.677Z,100811.52
2022-09-23T16:17:37.799Z,100813.93
2022-09-23T16:22:40.564Z,100814.90
2022-09-23T16:27:43.392Z,100816.09
2022-09-23T16:32:46.186Z,100816.19
2022-09-23T16:37:49.243Z,100819.66
2022-09-23T16:42:54.302Z,100819.44
2022-09-23T16:47:57.174Z,100822.30
2022-09-23T16:53:00.008Z,100820.90
2022-09-23T16:58:02.759Z,100817.50
2022-09-23T17:03:24.574Z,100821.80
2022-09-23T17:08:27.343Z,100816.64
2022-09-23T17:13:31.103Z,100814.19
2022-09-23T17:18:34.515Z,100807.48
2022-09-23T17:23:37.640Z,100804.55
2022-09-23T17:28:40.414Z,100806.09
2022-09-23T17:33:43.325Z,100807.65
2022-09-23T17:38:48.153Z,100811.50
2022-09-23T17:43:57.221Z,100814.46
2022-09-23T17:48:59.955Z,100818.04
2022-09-23T17:54:02.728Z,100817.00
2022-09-23T17:59:05.594Z,100813.99
2022-09-23T18:04:08.459Z,100815.98
2022-09-23T18:09:11.404Z,100816.37
2022-09-23T18:14:16.551Z,100816.59
2022-09-23T18:19:21.438Z,100818.19
2022-09-23T18:24:33.156Z,100816.98
2022-09-23T18:29:37.828Z,100819.59
2022-09-23T18:34:40.658Z,100825.85
2022-09-23T18:39:43.543Z,100823.27
2022-09-23T18:44:47.140Z,100830.59
2022-09-23T18:50:08.909Z,100832.42
2022-09-23T18:55:12.696Z,100833.35
2022-09-23T19:00:15.837Z,100831.21
2022-09-23T19:05:19.133Z,100828.33
2022-09-23T19:10:22.297Z,100829.67
2022-09-23T19:15:25.095Z,100830.29
2022-09-23T19:20:29.386Z,100827.02
2022-09-23T19:25:32.230Z,100830.16
2022-09-23T19:30:35.679Z,100830.37
2022-09-23T19:35:53.580Z,100837.25
2022-09-23T19:40:56.486Z,100837.06
2022-09-23T19:45:59.227Z,100838.08
2022-09-23T19:51:02.673Z,100839.04
2022-09-23T19:56:06.022Z,100839.73
2022-09-23T20:01:08.992Z,100838.05
2022-09-23T20:06:11.871Z,100834.70
2022-09-23T20:11:27.633Z,100834.69
2022-09-23T20:16:34.352Z,100828.33
2022-09-23T20:21:37.371Z,100825.89
2022-09-23T20:26:58.918Z,100824.31
2022-09-23T20:32:02.170Z,100822.11
2022-09-23T20:37:06.086Z,100821.27
2022-09-23T20:42:09.346Z,100815.89
2022-09-23T20:47:14.176Z,100813.48
2022-09-23T20:52:17.891Z,100811.58
2022-09-23T20:57:20.874Z,100815.05
2022-09-23T21:02:25.532Z,100815.48
2022-09-23T21:07:28.382Z,100816.98
2022-09-23T21:12:31.764Z,100811.20
2022-09-23T21:17:34.662Z,100811.59
2022-09-23T21:22:37.643Z,100810.58
2022-09-23T21:27:40.516Z,100810.34
2022-09-23T21:32:44.709Z,100816.16
2022-09-23T21:37:47.580Z,100814.41
2022-09-23T21:42:50.820Z,100813.27
2022-09-23T21:47:54.693Z,100814.13
2022-09-23T21:52:58.440Z,100818.33
2022-09-23T21:58:01.273Z,100813.72
2022-09-23T22:03:04.186Z,100817.66
2022-09-23T22:08:09.140Z,100815.78
2022-09-23T22:13:13.065Z,100813.44
2022-09-23T22:18:19.354Z,100815.23
2022-09-23T22:23:22.142Z,100816.73
2022-09-23T22:28:44.093Z,100809.16
2022-09-23T22:33:50.670Z,100809.30
2022-09-23T22:38:59.066Z,100806.73
2022-09-23T22:44:03.448Z,100803.64
2022-09-23T22:49:07.568Z,100804.29
2022-09-23T22:54:10.863Z,100799.86
2022-09-23T22:59:13.990Z,100796.12
2022-09-23T23:04:16.865Z,100786.89
2022-09-23T23:09:19.698Z,100784.91
2022-09-23T23:14:22.537Z,100784.98
2022-09-23T23:19:26.116Z,100781.16
2022-09-23T23:24:29.113Z,100777.13
2022-09-23T23:29:31.994Z,100775.95
2022-09-23T23:34:34.805Z,100774.80
2022-09-23T23:39:37.594Z,100773.92
2022-09-23T23:44:40.619Z,100774.27
2022-09-23T23:49:43.366Z,100775.12
2022-09-23T23:54:46.308Z,100776.69
2022-09-23T23:59:49.599Z,100778.34
